sensor_id;sensor_type;location;lat;lon;timestamp;temperature;humidity
25512;DHT22;13414;44.534;18.700;2022-09-30T00:01:53;14.50;99.90
25512;DHT22;13414;44.534;18.700;2022-09-30T00:04:22;14.50;99.90
25512;DHT22;13414;44.534;18.700;2022-09-30T00:06:51;14.50;99.90
25512;DHT22;13414;44.534;18.700;2022-09-30T00:09:18;14.40;99.90
25512;DHT22;13414;44.534;18.700;2022-09-30T00:11:46;14.30;99.90
25512;DHT22;13414;44.534;18.700;2022-09-30T00:14:18;14.30;99.90
25512;DHT22;13414;44.534;18.700;2022-09-30T00:16:45;14.30;99.90
25512;DHT22;13414;44.534;18.700;2022-09-30T00:19:13;14.20;99.90
25512;DHT22;13414;44.534;18.700;2022-09-30T00:21:41;14.20;99.90
25512;DHT22;13414;44.534;18.700;2022-09-30T00:24:09;14.20;99.90
25512;DHT22;13414;44.534;18.700;2022-09-30T00:26:36;14.20;99.90
25512;DHT22;13414;44.534;18.700;2022-09-30T00:29:03;14.20;99.90
25512;DHT22;13414;44.534;18.700;2022-09-30T00:31:33;14.20;99.90
25512;DHT22;13414;44.534;18.700;2022-09-30T00:34:01;14.20;99.90
25512;DHT22;13414;44.534;18.700;2022-09-30T00:36:35;14.20;99.90
25512;DHT22;13414;44.534;18.700;2022-09-30T00:39:04;14.20;99.90
25512;DHT22;13414;44.534;18.700;2022-09-30T00:41:33;14.10;99.90
25512;DHT22;13414;44.534;18.700;2022-09-30T00:44:00;14.20;99.90
25512;DHT22;13414;44.534;18.700;2022-09-30T00:46:34;14.10;99.90
25512;DHT22;13414;44.534;18.700;2022-09-30T00:49:06;14.10;99.90
25512;DHT22;13414;44.534;18.700;2022-09-30T00:51:39;14.10;99.90
25512;DHT22;13414;44.534;18.700;2022-09-30T00:54:10;14.10;99.90
25512;DHT22;13414;44.534;18.700;2022-09-30T00:56:42;14.10;99.90
25512;DHT22;13414;44.534;18.700;2022-09-30T00:59:14;14.10;99.90
25512;DHT22;13414;44.534;18.700;2022-09-30T01:01:43;14.10;99.90
25512;DHT22;13414;44.534;18.700;2022-09-30T01:04:12;14.10;99.90
25512;DHT22;13414;44.534;18.700;2022-09-30T01:06:41;14.10;99.90
25512;DHT22;13414;44.534;18.700;2022-09-30T01:09:09;14.10;99.90
25512;DHT22;13414;44.534;18.700;2022-09-30T01:11:37;14.10;99.90
25512;DHT22;13414;44.534;18.700;2022-09-30T01:14:06;14.10;99.90
25512;DHT22;13414;44.534;18.700;2022-09-30T01:16:49;14.10;99.90
25512;DHT22;13414;44.534;18.700;2022-09-30T01:19:40;14.10;99.90
25512;DHT22;13414;44.534;18.700;2022-09-30T01:22:20;14.00;99.90
25512;DHT22;13414;44.534;18.700;2022-09-30T01:25:17;14.00;99.90
25512;DHT22;13414;44.534;18.700;2022-09-30T01:31:06;14.00;99.90
25512;DHT22;13414;44.534;18.700;2022-09-30T01:33:44;13.90;99.90
25512;DHT22;13414;44.534;18.700;2022-09-30T01:36:27;13.90;99.90
25512;DHT22;13414;44.534;18.700;2022-09-30T01:39:08;13.90;99.90
25512;DHT22;13414;44.534;18.700;2022-09-30T01:41:44;14.00;99.90
25512;DHT22;13414;44.534;18.700;2022-09-30T01:44:26;14.10;99.90
25512;DHT22;13414;44.534;18.700;2022-09-30T01:46:57;14.10;99.90
25512;DHT22;13414;44.534;18.700;2022-09-30T01:49:30;14.20;99.90
25512;DHT22;13414;44.534;18.700;2022-09-30T01:52:03;14.20;99.90
25512;DHT22;13414;44.534;18.700;2022-09-30T01:54:35;14.20;99.90
25512;DHT22;13414;44.534;18.700;2022-09-30T01:57:08;14.20;99.90
25512;DHT22;13414;44.534;18.700;2022-09-30T01:59:42;14.20;99.90
25512;DHT22;13414;44.534;18.700;2022-09-30T02:02:16;14.20;99.90
25512;DHT22;13414;44.534;18.700;2022-09-30T02:04:47;14.20;99.90
25512;DHT22;13414;44.534;18.700;2022-09-30T02:07:20;14.10;99.90
25512;DHT22;13414;44.534;18.700;2022-09-30T02:09:54;14.10;99.90
25512;DHT22;13414;44.534;18.700;2022-09-30T02:12:25;14.00;99.90
25512;DHT22;13414;44.534;18.700;2022-09-30T02:14:58;14.10;99.90
25512;DHT22;13414;44.534;18.700;2022-09-30T02:17:32;14.00;99.90
25512;DHT22;13414;44.534;18.700;2022-09-30T02:20:04;14.00;99.90
25512;DHT22;13414;44.534;18.700;2022-09-30T02:22:36;14.00;99.90
25512;DHT22;13414;44.534;18.700;2022-09-30T02:25:11;14.00;99.90
25512;DHT22;13414;44.534;18.700;2022-09-30T02:27:45;14.10;99.90
25512;DHT22;13414;44.534;18.700;2022-09-30T02:30:14;14.10;99.90
25512;DHT22;13414;44.534;18.700;2022-09-30T02:32:46;14.20;99.90
25512;DHT22;13414;44.534;18.700;2022-09-30T02:35:20;14.20;99.90
25512;DHT22;13414;44.534;18.700;2022-09-30T02:37:52;14.20;99.90
25512;DHT22;13414;44.534;18.700;2022-09-30T02:40:23;14.20;99.90
25512;DHT22;13414;44.534;18.700;2022-09-30T02:42:52;14.20;99.90
25512;DHT22;13414;44.534;18.700;2022-09-30T02:45:21;14.20;99.90
25512;DHT22;13414;44.534;18.700;2022-09-30T02:48:02;14.30;99.90
25512;DHT22;13414;44.534;18.700;2022-09-30T02:50:34;14.30;99.90
25512;DHT22;13414;44.534;18.700;2022-09-30T02:53:14;14.30;99.90
25512;DHT22;13414;44.534;18.700;2022-09-30T02:55:57;14.30;99.90
25512;DHT22;13414;44.534;18.700;2022-09-30T02:58:27;14.30;99.90
25512;DHT22;13414;44.534;18.700;2022-09-30T03:00:56;14.30;99.90
25512;DHT22;13414;44.534;18.700;2022-09-30T03:03:27;14.40;99.90
25512;DHT22;13414;44.534;18.700;2022-09-30T03:05:55;14.40;99.90
25512;DHT22;13414;44.534;18.700;2022-09-30T03:08:23;14.40;99.90
25512;DHT22;13414;44.534;18.700;2022-09-30T03:10:51;14.40;99.90
25512;DHT22;13414;44.534;18.700;2022-09-30T03:16:30;14.50;99.90
25512;DHT22;13414;44.534;18.700;2022-09-30T03:19:25;14.50;99.90
25512;DHT22;13414;44.534;18.700;2022-09-30T03:22:08;14.50;99.90
25512;DHT22;13414;44.534;18.700;2022-09-30T03:24:59;14.40;99.90
25512;DHT22;13414;44.534;18.700;2022-09-30T03:27:37;14.40;99.90
25512;DHT22;13414;44.534;18.700;2022-09-30T03:30:10;14.50;99.90
25512;DHT22;13414;44.534;18.700;2022-09-30T03:32:51;14.50;99.90
25512;DHT22;13414;44.534;18.700;2022-09-30T03:35:28;14.50;99.90
25512;DHT22;13414;44.534;18.700;2022-09-30T03:38:00;14.60;99.90
25512;DHT22;13414;44.534;18.700;2022-09-30T03:40:36;14.60;99.90
25512;DHT22;13414;44.534;18.700;2022-09-30T03:43:08;14.60;99.90
25512;DHT22;13414;44.534;18.700;2022-09-30T03:45:40;14.60;99.90
25512;DHT22;13414;44.534;18.700;2022-09-30T03:48:13;14.70;99.90
25512;DHT22;13414;44.534;18.700;2022-09-30T03:50:43;14.70;99.90
25512;DHT22;13414;44.534;18.700;2022-09-30T03:53:12;14.70;99.90
25512;DHT22;13414;44.534;18.700;2022-09-30T03:55:45;14.80;99.90
25512;DHT22;13414;44.534;18.700;2022-09-30T03:58:14;14.70;99.90
25512;DHT22;13414;44.534;18.700;2022-09-30T04:00:46;14.70;99.90
25512;DHT22;13414;44.534;18.700;2022-09-30T04:03:15;14.60;99.90
25512;DHT22;13414;44.534;18.700;2022-09-30T04:05:44;14.60;99.90
25512;DHT22;13414;44.534;18.700;2022-09-30T04:08:12;14.50;99.90
25512;DHT22;13414;44.534;18.700;2022-09-30T04:10:40;14.50;99.90
25512;DHT22;13414;44.534;18.700;2022-09-30T04:13:07;14.40;99.90
25512;DHT22;13414;44.534;18.700;2022-09-30T04:15:35;14.50;99.90
25512;DHT22;13414;44.534;18.700;2022-09-30T04:18:03;14.40;99.90
25512;DHT22;13414;44.534;18.700;2022-09-30T04:20:31;14.30;99.90
25512;DHT22;13414;44.534;18.700;2022-09-30T04:23:00;14.20;99.90
25512;DHT22;13414;44.534;18.700;2022-09-30T04:25:29;14.10;99.90
25512;DHT22;13414;44.534;18.700;2022-09-30T04:27:57;14.00;99.90
25512;DHT22;13414;44.534;18.700;2022-09-30T04:30:24;13.90;99.90
25512;DHT22;13414;44.534;18.700;2022-09-30T04:32:52;13.90;99.90
25512;DHT22;13414;44.534;18.700;2022-09-30T04:35:19;13.90;99.90
25512;DHT22;13414;44.534;18.700;2022-09-30T04:37:46;13.80;99.90
25512;DHT22;13414;44.534;18.700;2022-09-30T04:40:15;13.80;99.90
25512;DHT22;13414;44.534;18.700;2022-09-30T04:42:43;13.90;99.90
25512;DHT22;13414;44.534;18.700;2022-09-30T04:45:13;13.90;99.90
25512;DHT22;13414;44.534;18.700;2022-09-30T04:47:42;13.80;99.90
25512;DHT22;13414;44.534;18.700;2022-09-30T04:50:11;13.80;99.90
25512;DHT22;13414;44.534;18.700;2022-09-30T04:52:41;13.70;99.90
25512;DHT22;13414;44.534;18.700;2022-09-30T04:55:09;13.70;99.90
25512;DHT22;13414;44.534;18.700;2022-09-30T04:57:38;13.70;99.90
25512;DHT22;13414;44.534;18.700;2022-09-30T05:00:07;13.70;99.90
25512;DHT22;13414;44.534;18.700;2022-09-30T05:02:34;13.70;99.90
25512;DHT22;13414;44.534;18.700;2022-09-30T05:05:02;13.60;99.90
25512;DHT22;13414;44.534;18.700;2022-09-30T05:07:30;13.60;99.90
25512;DHT22;13414;44.534;18.700;2022-09-30T05:09:57;13.60;99.90
25512;DHT22;13414;44.534;18.700;2022-09-30T05:12:24;13.60;99.90
25512;DHT22;13414;44.534;18.700;2022-09-30T05:14:53;13.60;99.90
25512;DHT22;13414;44.534;18.700;2022-09-30T05:17:21;13.60;99.90
25512;DHT22;13414;44.534;18.700;2022-09-30T05:19:48;13.60;99.90
25512;DHT22;13414;44.534;18.700;2022-09-30T05:22:15;13.60;99.90
25512;DHT22;13414;44.534;18.700;2022-09-30T05:24:43;13.60;99.90
25512;DHT22;13414;44.534;18.700;2022-09-30T05:27:10;13.60;99.90
25512;DHT22;13414;44.534;18.700;2022-09-30T05:29:37;13.60;99.90
25512;DHT22;13414;44.534;18.700;2022-09-30T05:32:06;13.70;99.90
25512;DHT22;13414;44.534;18.700;2022-09-30T05:34:33;13.80;99.90
25512;DHT22;13414;44.534;18.700;2022-09-30T05:37:01;13.80;99.90
25512;DHT22;13414;44.534;18.700;2022-09-30T05:39:29;13.90;99.90
25512;DHT22;13414;44.534;18.700;2022-09-30T05:41:56;14.00;99.90
25512;DHT22;13414;44.534;18.700;2022-09-30T05:44:24;14.00;99.90
25512;DHT22;13414;44.534;18.700;2022-09-30T05:46:51;14.10;99.90
25512;DHT22;13414;44.534;18.700;2022-09-30T05:49:20;14.10;99.90
25512;DHT22;13414;44.534;18.700;2022-09-30T05:51:47;14.20;99.90
25512;DHT22;13414;44.534;18.700;2022-09-30T05:54:15;14.30;99.90
25512;DHT22;13414;44.534;18.700;2022-09-30T05:56:42;14.30;99.90
25512;DHT22;13414;44.534;18.700;2022-09-30T05:59:10;14.40;99.90
25512;DHT22;13414;44.534;18.700;2022-09-30T06:01:38;14.60;99.90
25512;DHT22;13414;44.534;18.700;2022-09-30T06:04:05;14.80;99.90
25512;DHT22;13414;44.534;18.700;2022-09-30T06:06:34;15.00;99.90
25512;DHT22;13414;44.534;18.700;2022-09-30T06:09:03;15.00;99.90
25512;DHT22;13414;44.534;18.700;2022-09-30T06:11:30;15.00;99.90
25512;DHT22;13414;44.534;18.700;2022-09-30T06:13:57;15.10;99.90
25512;DHT22;13414;44.534;18.700;2022-09-30T06:16:25;15.30;99.90
25512;DHT22;13414;44.534;18.700;2022-09-30T06:18:52;15.40;99.90
25512;DHT22;13414;44.534;18.700;2022-09-30T06:21:20;15.60;99.90
25512;DHT22;13414;44.534;18.700;2022-09-30T06:23:49;15.70;99.90
25512;DHT22;13414;44.534;18.700;2022-09-30T06:26:16;15.90;99.90
25512;DHT22;13414;44.534;18.700;2022-09-30T06:28:44;16.10;99.90
25512;DHT22;13414;44.534;18.700;2022-09-30T06:31:11;16.30;99.90
25512;DHT22;13414;44.534;18.700;2022-09-30T06:33:39;16.50;99.90
25512;DHT22;13414;44.534;18.700;2022-09-30T06:36:07;16.80;99.90
25512;DHT22;13414;44.534;18.700;2022-09-30T06:38:35;16.90;99.90
25512;DHT22;13414;44.534;18.700;2022-09-30T06:41:06;16.90;99.90
25512;DHT22;13414;44.534;18.700;2022-09-30T06:43:34;17.20;99.90
25512;DHT22;13414;44.534;18.700;2022-09-30T06:46:02;17.50;99.90
25512;DHT22;13414;44.534;18.700;2022-09-30T06:48:29;17.70;99.90
25512;DHT22;13414;44.534;18.700;2022-09-30T06:50:57;17.70;99.90
25512;DHT22;13414;44.534;18.700;2022-09-30T06:53:25;18.00;99.90
25512;DHT22;13414;44.534;18.700;2022-09-30T06:55:55;18.30;99.90
25512;DHT22;13414;44.534;18.700;2022-09-30T06:58:23;18.30;99.90
25512;DHT22;13414;44.534;18.700;2022-09-30T07:00:57;18.50;99.90
25512;DHT22;13414;44.534;18.700;2022-09-30T07:03:27;18.70;99.90
25512;DHT22;13414;44.534;18.700;2022-09-30T07:05:56;18.90;99.90
25512;DHT22;13414;44.534;18.700;2022-09-30T07:08:25;18.50;99.90
25512;DHT22;13414;44.534;18.700;2022-09-30T07:10:54;18.40;99.90
25512;DHT22;13414;44.534;18.700;2022-09-30T07:13:23;18.50;99.90
25512;DHT22;13414;44.534;18.700;2022-09-30T07:15:51;18.70;99.90
25512;DHT22;13414;44.534;18.700;2022-09-30T07:18:19;18.80;99.90
25512;DHT22;13414;44.534;18.700;2022-09-30T07:20:50;18.80;99.90
25512;DHT22;13414;44.534;18.700;2022-09-30T07:23:18;19.10;99.90
25512;DHT22;13414;44.534;18.700;2022-09-30T07:25:50;19.20;99.90
25512;DHT22;13414;44.534;18.700;2022-09-30T07:28:19;19.40;99.90
25512;DHT22;13414;44.534;18.700;2022-09-30T07:30:48;19.40;99.90
25512;DHT22;13414;44.534;18.700;2022-09-30T07:33:16;19.30;99.90
25512;DHT22;13414;44.534;18.700;2022-09-30T07:35:50;19.50;99.90
25512;DHT22;13414;44.534;18.700;2022-09-30T07:38:19;19.50;99.90
25512;DHT22;13414;44.534;18.700;2022-09-30T07:40:54;19.70;99.90
25512;DHT22;13414;44.534;18.700;2022-09-30T07:43:24;20.10;99.90
25512;DHT22;13414;44.534;18.700;2022-09-30T07:45:54;20.10;99.90
25512;DHT22;13414;44.534;18.700;2022-09-30T07:48:21;20.20;99.90
25512;DHT22;13414;44.534;18.700;2022-09-30T07:51:13;20.10;99.90
25512;DHT22;13414;44.534;18.700;2022-09-30T07:53:43;20.20;99.90
25512;DHT22;13414;44.534;18.700;2022-09-30T07:56:11;20.30;99.90
25512;DHT22;13414;44.534;18.700;2022-09-30T07:58:39;20.40;99.90
25512;DHT22;13414;44.534;18.700;2022-09-30T08:01:08;20.40;99.90
25512;DHT22;13414;44.534;18.700;2022-09-30T08:03:37;20.60;99.90
25512;DHT22;13414;44.534;18.700;2022-09-30T08:06:07;20.70;99.90
25512;DHT22;13414;44.534;18.700;2022-09-30T08:08:35;20.70;99.90
25512;DHT22;13414;44.534;18.700;2022-09-30T08:11:04;20.70;99.90
25512;DHT22;13414;44.534;18.700;2022-09-30T08:13:32;20.70;99.90
25512;DHT22;13414;44.534;18.700;2022-09-30T08:16:00;20.60;99.90
25512;DHT22;13414;44.534;18.700;2022-09-30T08:18:29;20.60;99.90
25512;DHT22;13414;44.534;18.700;2022-09-30T08:21:01;20.60;99.90
25512;DHT22;13414;44.534;18.700;2022-09-30T08:23:29;20.50;99.90
25512;DHT22;13414;44.534;18.700;2022-09-30T08:26:00;20.30;99.90
25512;DHT22;13414;44.534;18.700;2022-09-30T08:28:28;20.20;99.90
25512;DHT22;13414;44.534;18.700;2022-09-30T08:31:03;20.20;99.90
25512;DHT22;13414;44.534;18.700;2022-09-30T08:33:32;20.20;99.90
25512;DHT22;13414;44.534;18.700;2022-09-30T08:36:04;20.20;99.90
25512;DHT22;13414;44.534;18.700;2022-09-30T08:38:31;20.20;99.90
25512;DHT22;13414;44.534;18.700;2022-09-30T08:41:18;20.30;99.90
25512;DHT22;13414;44.534;18.700;2022-09-30T08:43:57;20.30;99.90
25512;DHT22;13414;44.534;18.700;2022-09-30T08:46:35;20.40;99.90
25512;DHT22;13414;44.534;18.700;2022-09-30T08:49:17;20.50;99.90
25512;DHT22;13414;44.534;18.700;2022-09-30T08:51:48;20.60;99.90
25512;DHT22;13414;44.534;18.700;2022-09-30T08:54:20;20.60;99.90
25512;DHT22;13414;44.534;18.700;2022-09-30T08:56:48;20.60;99.90
25512;DHT22;13414;44.534;18.700;2022-09-30T08:59:23;20.60;99.90
25512;DHT22;13414;44.534;18.700;2022-09-30T09:01:58;20.70;99.90
25512;DHT22;13414;44.534;18.700;2022-09-30T09:04:28;20.70;99.90
25512;DHT22;13414;44.534;18.700;2022-09-30T09:07:01;20.70;99.90
25512;DHT22;13414;44.534;18.700;2022-09-30T09:09:34;20.60;99.90
25512;DHT22;13414;44.534;18.700;2022-09-30T09:12:13;20.60;99.90
25512;DHT22;13414;44.534;18.700;2022-09-30T09:14:51;20.80;99.90
25512;DHT22;13414;44.534;18.700;2022-09-30T09:17:30;21.00;99.90
25512;DHT22;13414;44.534;18.700;2022-09-30T09:20:06;21.20;99.90
25512;DHT22;13414;44.534;18.700;2022-09-30T09:22:36;21.30;99.90
25512;DHT22;13414;44.534;18.700;2022-09-30T09:25:04;21.40;99.90
25512;DHT22;13414;44.534;18.700;2022-09-30T09:27:40;21.40;99.90
25512;DHT22;13414;44.534;18.700;2022-09-30T09:30:11;21.40;99.90
25512;DHT22;13414;44.534;18.700;2022-09-30T09:32:41;21.50;99.90
25512;DHT22;13414;44.534;18.700;2022-09-30T09:35:15;21.70;99.90
25512;DHT22;13414;44.534;18.700;2022-09-30T09:37:49;21.90;99.90
25512;DHT22;13414;44.534;18.700;2022-09-30T09:40:42;22.10;99.90
25512;DHT22;13414;44.534;18.700;2022-09-30T09:43:31;22.30;99.90
25512;DHT22;13414;44.534;18.700;2022-09-30T09:46:11;22.40;99.90
25512;DHT22;13414;44.534;18.700;2022-09-30T09:48:41;22.50;99.90
25512;DHT22;13414;44.534;18.700;2022-09-30T09:51:18;22.60;99.90
25512;DHT22;13414;44.534;18.700;2022-09-30T09:53:48;22.70;99.90
25512;DHT22;13414;44.534;18.700;2022-09-30T09:56:19;22.70;99.90
25512;DHT22;13414;44.534;18.700;2022-09-30T09:59:07;22.80;99.90
25512;DHT22;13414;44.534;18.700;2022-09-30T10:01:38;22.90;99.90
25512;DHT22;13414;44.534;18.700;2022-09-30T10:04:11;22.90;99.90
25512;DHT22;13414;44.534;18.700;2022-09-30T10:06:47;22.90;99.90
25512;DHT22;13414;44.534;18.700;2022-09-30T10:09:22;23.10;99.90
25512;DHT22;13414;44.534;18.700;2022-09-30T10:11:50;23.20;99.90
25512;DHT22;13414;44.534;18.700;2022-09-30T10:14:20;23.30;99.90
25512;DHT22;13414;44.534;18.700;2022-09-30T10:16:48;23.40;99.90
25512;DHT22;13414;44.534;18.700;2022-09-30T10:19:19;23.60;99.90
25512;DHT22;13414;44.534;18.700;2022-09-30T10:21:53;23.50;99.90
25512;DHT22;13414;44.534;18.700;2022-09-30T10:24:42;23.40;99.90
25512;DHT22;13414;44.534;18.700;2022-09-30T10:27:25;23.20;99.90
25512;DHT22;13414;44.534;18.700;2022-09-30T10:29:53;23.20;99.90
25512;DHT22;13414;44.534;18.700;2022-09-30T10:32:21;23.20;99.90
25512;DHT22;13414;44.534;18.700;2022-09-30T10:34:54;23.10;99.90
25512;DHT22;13414;44.534;18.700;2022-09-30T10:37:24;23.00;99.90
25512;DHT22;13414;44.534;18.700;2022-09-30T10:39:55;22.90;99.90
25512;DHT22;13414;44.534;18.700;2022-09-30T10:42:25;22.90;99.90
25512;DHT22;13414;44.534;18.700;2022-09-30T10:44:55;22.80;99.90
25512;DHT22;13414;44.534;18.700;2022-09-30T10:47:25;22.80;99.90
25512;DHT22;13414;44.534;18.700;2022-09-30T10:49:55;22.90;99.90
25512;DHT22;13414;44.534;18.700;2022-09-30T10:52:28;23.00;99.90
25512;DHT22;13414;44.534;18.700;2022-09-30T10:54:58;23.10;99.90
25512;DHT22;13414;44.534;18.700;2022-09-30T10:57:27;23.20;99.90
25512;DHT22;13414;44.534;18.700;2022-09-30T10:59:57;23.30;99.90
25512;DHT22;13414;44.534;18.700;2022-09-30T11:02:30;23.40;99.90
25512;DHT22;13414;44.534;18.700;2022-09-30T11:05:09;23.50;99.90
25512;DHT22;13414;44.534;18.700;2022-09-30T11:07:43;23.50;99.90
25512;DHT22;13414;44.534;18.700;2022-09-30T11:10:25;23.60;99.90
25512;DHT22;13414;44.534;18.700;2022-09-30T11:12:59;23.70;99.90
25512;DHT22;13414;44.534;18.700;2022-09-30T11:15:30;23.80;99.90
25512;DHT22;13414;44.534;18.700;2022-09-30T11:18:02;23.90;99.90
25512;DHT22;13414;44.534;18.700;2022-09-30T11:20:35;24.00;99.90
25512;DHT22;13414;44.534;18.700;2022-09-30T11:23:10;23.90;99.90
25512;DHT22;13414;44.534;18.700;2022-09-30T11:25:48;23.80;99.90
25512;DHT22;13414;44.534;18.700;2022-09-30T11:28:38;23.80;99.90
25512;DHT22;13414;44.534;18.700;2022-09-30T11:31:17;23.80;99.90
25512;DHT22;13414;44.534;18.700;2022-09-30T11:33:58;23.80;99.90
25512;DHT22;13414;44.534;18.700;2022-09-30T11:36:33;23.80;99.90
25512;DHT22;13414;44.534;18.700;2022-09-30T11:39:31;23.80;99.90
25512;DHT22;13414;44.534;18.700;2022-09-30T11:42:06;23.80;99.90
25512;DHT22;13414;44.534;18.700;2022-09-30T11:44:39;23.90;99.90
25512;DHT22;13414;44.534;18.700;2022-09-30T11:47:23;24.00;99.90
25512;DHT22;13414;44.534;18.700;2022-09-30T11:50:04;24.00;99.90
25512;DHT22;13414;44.534;18.700;2022-09-30T11:52:39;24.00;99.90
25512;DHT22;13414;44.534;18.700;2022-09-30T11:55:29;24.00;99.90
25512;DHT22;13414;44.534;18.700;2022-09-30T11:58:01;24.10;99.90
25512;DHT22;13414;44.534;18.700;2022-09-30T12:00:33;24.10;99.90
25512;DHT22;13414;44.534;18.700;2022-09-30T12:03:05;24.20;99.90
25512;DHT22;13414;44.534;18.700;2022-09-30T12:05:37;24.30;99.90
25512;DHT22;13414;44.534;18.700;2022-09-30T12:08:11;24.20;99.90
25512;DHT22;13414;44.534;18.700;2022-09-30T12:10:47;24.30;99.90
25512;DHT22;13414;44.534;18.700;2022-09-30T12:13:19;24.40;99.90
25512;DHT22;13414;44.534;18.700;2022-09-30T12:15:50;24.60;99.90
25512;DHT22;13414;44.534;18.700;2022-09-30T12:18:23;24.80;99.90
25512;DHT22;13414;44.534;18.700;2022-09-30T12:20:55;24.90;99.50
25512;DHT22;13414;44.534;18.700;2022-09-30T12:23:27;25.20;99.40
25512;DHT22;13414;44.534;18.700;2022-09-30T12:26:00;25.40;98.80
25512;DHT22;13414;44.534;18.700;2022-09-30T12:28:32;25.50;96.00
25512;DHT22;13414;44.534;18.700;2022-09-30T12:31:38;25.50;95.20
25512;DHT22;13414;44.534;18.700;2022-09-30T12:34:21;25.50;95.30
25512;DHT22;13414;44.534;18.700;2022-09-30T12:37:03;25.60;94.50
25512;DHT22;13414;44.534;18.700;2022-09-30T12:39:56;25.80;94.40
25512;DHT22;13414;44.534;18.700;2022-09-30T12:42:48;25.80;94.10
25512;DHT22;13414;44.534;18.700;2022-09-30T12:48:17;25.70;94.00
25512;DHT22;13414;44.534;18.700;2022-09-30T12:50:47;25.60;94.30
25512;DHT22;13414;44.534;18.700;2022-09-30T12:53:20;25.60;95.70
25512;DHT22;13414;44.534;18.700;2022-09-30T12:55:50;25.60;97.00
25512;DHT22;13414;44.534;18.700;2022-09-30T12:58:22;25.80;96.30
25512;DHT22;13414;44.534;18.700;2022-09-30T13:01:02;25.80;97.00
25512;DHT22;13414;44.534;18.700;2022-09-30T13:03:44;25.70;95.20
25512;DHT22;13414;44.534;18.700;2022-09-30T13:06:14;25.60;93.60
25512;DHT22;13414;44.534;18.700;2022-09-30T13:08:44;25.40;92.70
25512;DHT22;13414;44.534;18.700;2022-09-30T13:11:39;25.20;92.30
25512;DHT22;13414;44.534;18.700;2022-09-30T13:14:22;25.10;92.40
25512;DHT22;13414;44.534;18.700;2022-09-30T13:19:41;25.20;92.20
25512;DHT22;13414;44.534;18.700;2022-09-30T13:22:40;25.20;92.10
25512;DHT22;13414;44.534;18.700;2022-09-30T13:25:13;25.20;91.50
25512;DHT22;13414;44.534;18.700;2022-09-30T13:27:43;25.10;91.90
25512;DHT22;13414;44.534;18.700;2022-09-30T13:30:40;25.20;91.70
25512;DHT22;13414;44.534;18.700;2022-09-30T13:33:31;25.30;91.10
25512;DHT22;13414;44.534;18.700;2022-09-30T13:36:14;25.40;91.00
25512;DHT22;13414;44.534;18.700;2022-09-30T13:38:42;25.40;90.80
25512;DHT22;13414;44.534;18.700;2022-09-30T13:41:19;25.30;91.20
25512;DHT22;13414;44.534;18.700;2022-09-30T13:43:54;25.30;90.60
25512;DHT22;13414;44.534;18.700;2022-09-30T13:46:32;25.40;90.30
25512;DHT22;13414;44.534;18.700;2022-09-30T13:49:09;25.60;90.60
25512;DHT22;13414;44.534;18.700;2022-09-30T13:51:39;25.70;90.90
25512;DHT22;13414;44.534;18.700;2022-09-30T13:54:10;25.70;91.10
25512;DHT22;13414;44.534;18.700;2022-09-30T13:56:40;25.70;90.70
25512;DHT22;13414;44.534;18.700;2022-09-30T13:59:38;25.90;91.20
25512;DHT22;13414;44.534;18.700;2022-09-30T14:02:33;26.00;89.40
25512;DHT22;13414;44.534;18.700;2022-09-30T14:05:43;25.90;90.30
25512;DHT22;13414;44.534;18.700;2022-09-30T14:08:35;25.70;89.30
25512;DHT22;13414;44.534;18.700;2022-09-30T14:11:18;25.60;88.50
25512;DHT22;13414;44.534;18.700;2022-09-30T14:14:00;25.50;88.90
25512;DHT22;13414;44.534;18.700;2022-09-30T14:19:46;25.50;89.80
25512;DHT22;13414;44.534;18.700;2022-09-30T14:22:19;25.40;89.80
25512;DHT22;13414;44.534;18.700;2022-09-30T14:24:51;25.40;89.90
25512;DHT22;13414;44.534;18.700;2022-09-30T14:27:32;25.40;90.20
25512;DHT22;13414;44.534;18.700;2022-09-30T14:30:05;25.30;89.20
25512;DHT22;13414;44.534;18.700;2022-09-30T14:32:39;25.30;89.20
25512;DHT22;13414;44.534;18.700;2022-09-30T14:35:13;25.20;89.80
25512;DHT22;13414;44.534;18.700;2022-09-30T14:37:46;25.10;90.20
25512;DHT22;13414;44.534;18.700;2022-09-30T14:40:17;25.00;93.10
25512;DHT22;13414;44.534;18.700;2022-09-30T14:42:45;24.90;93.70
25512;DHT22;13414;44.534;18.700;2022-09-30T14:45:20;24.70;96.40
25512;DHT22;13414;44.534;18.700;2022-09-30T14:47:53;24.50;99.10
25512;DHT22;13414;44.534;18.700;2022-09-30T14:50:27;24.20;96.10
25512;DHT22;13414;44.534;18.700;2022-09-30T14:52:56;24.10;94.90
25512;DHT22;13414;44.534;18.700;2022-09-30T14:55:29;24.10;94.40
25512;DHT22;13414;44.534;18.700;2022-09-30T14:58:18;24.10;94.50
25512;DHT22;13414;44.534;18.700;2022-09-30T15:00:47;24.30;94.80
25512;DHT22;13414;44.534;18.700;2022-09-30T15:03:15;24.30;94.50
25512;DHT22;13414;44.534;18.700;2022-09-30T15:05:44;24.30;94.20
25512;DHT22;13414;44.534;18.700;2022-09-30T15:08:14;24.30;93.70
25512;DHT22;13414;44.534;18.700;2022-09-30T15:10:46;24.20;93.00
25512;DHT22;13414;44.534;18.700;2022-09-30T15:13:14;24.20;92.80
25512;DHT22;13414;44.534;18.700;2022-09-30T15:15:43;24.20;92.80
25512;DHT22;13414;44.534;18.700;2022-09-30T15:18:31;24.10;93.10
25512;DHT22;13414;44.534;18.700;2022-09-30T15:21:07;24.10;94.60
25512;DHT22;13414;44.534;18.700;2022-09-30T15:23:38;23.90;96.10
25512;DHT22;13414;44.534;18.700;2022-09-30T15:26:10;23.80;97.10
25512;DHT22;13414;44.534;18.700;2022-09-30T15:28:38;23.60;97.20
25512;DHT22;13414;44.534;18.700;2022-09-30T15:31:06;23.60;99.90
25512;DHT22;13414;44.534;18.700;2022-09-30T15:33:34;23.50;99.90
25512;DHT22;13414;44.534;18.700;2022-09-30T15:36:06;23.40;99.90
25512;DHT22;13414;44.534;18.700;2022-09-30T15:38:35;23.20;99.90
25512;DHT22;13414;44.534;18.700;2022-09-30T15:41:05;23.00;99.90
25512;DHT22;13414;44.534;18.700;2022-09-30T15:43:35;22.90;99.90
25512;DHT22;13414;44.534;18.700;2022-09-30T15:46:28;22.90;99.90
25512;DHT22;13414;44.534;18.700;2022-09-30T15:48:57;22.80;99.90
25512;DHT22;13414;44.534;18.700;2022-09-30T15:51:38;22.90;99.90
25512;DHT22;13414;44.534;18.700;2022-09-30T15:54:29;22.80;99.90
25512;DHT22;13414;44.534;18.700;2022-09-30T15:57:00;22.70;99.90
25512;DHT22;13414;44.534;18.700;2022-09-30T15:59:58;22.60;99.90
25512;DHT22;13414;44.534;18.700;2022-09-30T16:02:27;22.50;99.90
25512;DHT22;13414;44.534;18.700;2022-09-30T16:04:57;22.40;99.90
25512;DHT22;13414;44.534;18.700;2022-09-30T16:07:29;22.30;99.90